createdAt,value
2019-02-23T00:01:04.635Z,4.33
2019-02-23T00:03:34.006Z,4.37
2019-02-23T00:06:03.363Z,4.30
2019-02-23T00:08:33.147Z,3.65
2019-02-23T00:11:02.505Z,4.34
2019-02-23T00:13:32.142Z,4.34
2019-02-23T00:16:01.537Z,4.33
2019-02-23T00:18:31.758Z,4.36
2019-02-23T00:21:01.120Z,4.37
2019-02-23T00:23:31.245Z,4.37
2019-02-23T00:26:00.672Z,4.35
2019-02-23T00:28:30.165Z,4.37
2019-02-23T00:30:59.932Z,4.39
2019-02-23T00:33:29.342Z,4.42
2019-02-23T00:35:58.863Z,4.43
2019-02-23T00:38:28.236Z,4.52
2019-02-23T00:40:57.625Z,4.55
2019-02-23T00:43:27.154Z,4.53
2019-02-23T00:45:57.565Z,4.58
2019-02-23T00:48:27.039Z,4.53
2019-02-23T00:50:56.526Z,4.49
2019-02-23T00:53:26.321Z,4.48
2019-02-23T00:55:55.795Z,4.47
2019-02-23T00:58:25.319Z,4.39
2019-02-23T01:00:54.716Z,4.35
2019-02-23T01:03:24.194Z,4.27
2019-02-23T01:05:53.986Z,4.17
2019-02-23T01:08:23.491Z,4.15
2019-02-23T01:10:58.093Z,4.16
2019-02-23T01:13:24.057Z,4.14
2019-02-23T01:15:55.121Z,4.17
2019-02-23T01:18:24.489Z,4.14
2019-02-23T01:20:53.913Z,4.10
2019-02-23T01:23:23.317Z,4.05
2019-02-23T01:25:52.779Z,4.07
2019-02-23T01:28:22.502Z,4.02
2019-02-23T01:30:51.950Z,4.04
2019-02-23T01:33:21.382Z,4.00
2019-02-23T01:35:50.836Z,3.99
2019-02-23T01:38:20.321Z,3.96
2019-02-23T01:40:50.110Z,3.97
2019-02-23T01:43:19.551Z,3.93
2019-02-23T01:45:49.076Z,3.88
2019-02-23T01:48:18.542Z,3.85
2019-02-23T01:50:47.908Z,3.77
2019-02-23T01:53:17.358Z,3.69
2019-02-23T01:55:46.743Z,3.67
2019-02-23T01:58:19.539Z,3.67
2019-02-23T02:00:49.041Z,3.63
2019-02-23T02:03:18.450Z,3.58
2019-02-23T02:05:48.151Z,3.57
2019-02-23T02:08:17.533Z,3.51
2019-02-23T02:10:47.172Z,3.44
2019-02-23T02:13:16.743Z,3.37
2019-02-23T02:15:46.187Z,3.30
2019-02-23T02:18:15.528Z,3.22
2019-02-23T02:20:44.903Z,3.40
2019-02-23T02:23:14.551Z,3.41
2019-02-23T02:25:44.037Z,3.35
2019-02-23T02:28:13.369Z,3.33
2019-02-23T02:30:42.786Z,3.40
2019-02-23T02:33:12.440Z,3.44
2019-02-23T02:35:42.154Z,3.44
2019-02-23T02:38:11.644Z,3.45
2019-02-23T02:40:41.038Z,3.58
2019-02-23T02:43:11.168Z,3.66
2019-02-23T02:45:40.579Z,3.64
2019-02-23T02:48:09.922Z,3.65
2019-02-23T02:50:39.325Z,3.67
2019-02-23T02:53:09.110Z,3.66
2019-02-23T02:55:38.973Z,3.59
2019-02-23T02:58:08.351Z,3.42
2019-02-23T03:00:37.801Z,3.31
2019-02-23T03:03:07.171Z,3.16
2019-02-23T03:05:36.501Z,3.27
2019-02-23T03:08:05.987Z,3.36
2019-02-23T03:10:35.364Z,3.31
2019-02-23T03:13:05.089Z,3.29
2019-02-23T03:15:35.320Z,3.30
2019-02-23T03:18:04.718Z,3.29
2019-02-23T03:20:36.913Z,3.13
2019-02-23T03:23:05.400Z,3.21
2019-02-23T03:25:34.738Z,3.34
2019-02-23T03:28:04.718Z,3.31
2019-02-23T03:30:34.140Z,3.17
2019-02-23T03:33:03.587Z,3.01
2019-02-23T03:35:33.729Z,2.96
2019-02-23T03:38:04.291Z,2.86
2019-02-23T03:40:33.987Z,2.78
2019-02-23T03:43:03.387Z,2.88
2019-02-23T03:45:32.782Z,3.10
2019-02-23T03:48:02.159Z,3.07
2019-02-23T03:50:33.402Z,2.99
2019-02-23T03:53:02.932Z,2.96
2019-02-23T03:55:32.282Z,2.90
2019-02-23T03:58:01.754Z,3.05
2019-02-23T04:00:31.106Z,3.10
2019-02-23T04:03:00.570Z,3.05
2019-02-23T04:05:30.291Z,3.00
2019-02-23T04:07:59.885Z,2.98
2019-02-23T04:10:29.275Z,3.02
2019-02-23T04:12:58.632Z,2.93
2019-02-23T04:15:28.007Z,2.78
2019-02-23T04:17:57.737Z,2.97
2019-02-23T04:20:27.211Z,3.16
2019-02-23T04:22:56.946Z,3.28
2019-02-23T04:25:26.453Z,3.24
2019-02-23T04:27:55.982Z,3.20
2019-02-23T04:30:25.778Z,3.21
2019-02-23T04:32:55.151Z,3.15
2019-02-23T04:35:24.595Z,3.06
2019-02-23T04:37:54.096Z,3.12
2019-02-23T04:40:23.496Z,3.42
2019-02-23T04:42:53.195Z,3.58
2019-02-23T04:45:22.634Z,3.49
2019-02-23T04:47:52.420Z,3.35
2019-02-23T04:50:21.799Z,3.27
2019-02-23T04:52:51.218Z,3.11
2019-02-23T04:55:20.588Z,2.97
2019-02-23T04:57:49.964Z,2.87
2019-02-23T05:00:19.389Z,2.87
2019-02-23T05:02:48.933Z,2.84
2019-02-23T05:05:18.332Z,2.76
2019-02-23T05:07:47.987Z,2.75
2019-02-23T05:10:17.819Z,2.72
2019-02-23T05:12:48.019Z,2.65
2019-02-23T05:15:17.576Z,2.56
2019-02-23T05:17:48.175Z,2.82
2019-02-23T05:20:17.661Z,2.76
2019-02-23T05:22:47.406Z,2.86
2019-02-23T05:25:17.234Z,2.86
2019-02-23T05:27:46.593Z,2.72
2019-02-23T05:30:16.039Z,2.76
2019-02-23T05:32:45.792Z,2.77
2019-02-23T05:35:15.323Z,2.70
2019-02-23T05:37:45.194Z,2.83
2019-02-23T05:40:14.654Z,2.75
2019-02-23T05:42:44.330Z,2.69
2019-02-23T05:45:14.160Z,2.52
2019-02-23T05:47:43.540Z,2.73
2019-02-23T05:50:12.941Z,2.72
2019-02-23T05:52:42.862Z,3.08
2019-02-23T05:55:12.287Z,3.49
2019-02-23T05:57:41.681Z,3.75
2019-02-23T06:00:11.933Z,4.10
2019-02-23T06:02:44.773Z,4.35
2019-02-23T06:05:12.584Z,4.49
2019-02-23T06:07:41.926Z,4.87
2019-02-23T06:10:11.739Z,4.93
2019-02-23T06:12:41.128Z,4.88
2019-02-23T06:15:12.775Z,4.90
2019-02-23T06:17:42.520Z,4.88
2019-02-23T06:20:12.035Z,4.85
2019-02-23T06:22:42.064Z,4.81
2019-02-23T06:25:12.272Z,4.85
2019-02-23T06:27:42.479Z,4.86
2019-02-23T06:30:12.679Z,5.00
2019-02-23T06:32:42.856Z,5.12
2019-02-23T06:35:12.258Z,5.29
2019-02-23T06:37:42.071Z,5.44
2019-02-23T06:40:12.374Z,5.60
2019-02-23T06:42:41.810Z,5.72
2019-02-23T06:45:11.264Z,5.83
2019-02-23T06:47:40.653Z,5.90
2019-02-23T06:50:10.067Z,6.15
2019-02-23T06:52:39.557Z,6.48
2019-02-23T06:55:08.963Z,6.54
2019-02-23T06:57:38.382Z,6.43
2019-02-23T07:00:09.946Z,6.55
2019-02-23T07:02:39.332Z,6.85
2019-02-23T07:05:08.888Z,7.42
2019-02-23T07:07:38.301Z,7.73
2019-02-23T07:10:09.391Z,8.13
2019-02-23T07:12:39.111Z,8.42
2019-02-23T07:15:08.813Z,8.77
2019-02-23T07:17:38.232Z,8.40
2019-02-23T07:20:08.193Z,7.94
2019-02-23T07:22:37.712Z,7.49
2019-02-23T07:25:07.551Z,7.40
2019-02-23T07:27:37.051Z,7.50
2019-02-23T07:30:07.634Z,7.50
2019-02-23T07:32:37.133Z,7.61
2019-02-23T07:35:06.554Z,7.78
2019-02-23T07:37:35.922Z,7.85
2019-02-23T07:40:05.964Z,7.77
2019-02-23T07:42:35.437Z,7.59
2019-02-23T07:45:04.886Z,7.43
2019-02-23T07:47:34.644Z,7.32
2019-02-23T07:50:04.013Z,7.32
2019-02-23T07:52:33.486Z,7.27
2019-02-23T07:55:02.917Z,7.25
2019-02-23T07:57:32.522Z,7.23
2019-02-23T08:00:02.025Z,7.29
2019-02-23T08:02:31.539Z,7.36
2019-02-23T08:05:00.995Z,7.32
2019-02-23T08:07:30.457Z,7.25
2019-02-23T08:09:59.920Z,7.18
2019-02-23T08:12:29.461Z,7.12
2019-02-23T08:14:58.881Z,7.12
2019-02-23T08:17:28.434Z,7.15
2019-02-23T08:19:57.972Z,7.19
2019-02-23T08:22:37.079Z,7.28
2019-02-23T08:24:59.287Z,7.48
2019-02-23T08:27:29.781Z,7.56
2019-02-23T08:29:59.339Z,7.66
2019-02-23T08:32:28.924Z,7.71
2019-02-23T08:34:58.662Z,7.79
2019-02-23T08:37:29.657Z,7.91
2019-02-23T08:39:59.168Z,7.98
2019-02-23T08:42:28.703Z,8.07
2019-02-23T08:44:58.139Z,8.15
2019-02-23T08:47:27.518Z,8.19
2019-02-23T08:49:58.280Z,8.12
2019-02-23T08:52:28.220Z,8.05
2019-02-23T08:54:58.024Z,7.96
2019-02-23T08:57:28.252Z,8.00
2019-02-23T08:59:58.965Z,7.97
2019-02-23T09:02:28.446Z,7.94
2019-02-23T09:04:57.832Z,7.89
2019-02-23T09:07:27.325Z,7.87
2019-02-23T09:09:56.755Z,7.94
2019-02-23T09:12:26.534Z,7.98
2019-02-23T09:14:55.929Z,8.01
2019-02-23T09:17:25.612Z,8.00
2019-02-23T09:19:56.711Z,8.05
2019-02-23T09:22:26.164Z,8.02
2019-02-23T09:24:55.966Z,8.00
2019-02-23T09:27:25.521Z,8.00
2019-02-23T09:29:55.253Z,8.08
2019-02-23T09:32:25.010Z,8.12
2019-02-23T09:34:56.025Z,8.06
2019-02-23T09:37:26.540Z,8.10
2019-02-23T09:39:56.745Z,8.08
2019-02-23T09:42:26.571Z,8.12
2019-02-23T09:44:55.986Z,8.13
2019-02-23T09:47:26.165Z,8.12
2019-02-23T09:49:56.186Z,8.17
2019-02-23T09:52:26.846Z,8.24
2019-02-23T09:54:56.260Z,8.24
2019-02-23T09:57:26.811Z,8.24
2019-02-23T09:59:56.407Z,8.27
2019-02-23T10:02:26.481Z,8.28
2019-02-23T10:04:58.799Z,8.30
2019-02-23T10:07:28.269Z,8.33
2019-02-23T10:09:57.848Z,8.35
2019-02-23T10:12:27.270Z,8.48
2019-02-23T10:14:56.717Z,8.54
2019-02-23T10:17:26.088Z,8.56
2019-02-23T10:19:55.951Z,8.61
2019-02-23T10:22:25.359Z,8.65
2019-02-23T10:24:55.130Z,8.68
2019-02-23T10:27:24.697Z,8.70
2019-02-23T10:29:54.343Z,8.70
2019-02-23T10:32:24.005Z,8.70
2019-02-23T10:34:53.790Z,8.74
2019-02-23T10:37:23.297Z,8.70
2019-02-23T10:39:52.747Z,8.75
2019-02-23T10:42:22.512Z,8.80
2019-02-23T10:44:52.021Z,8.78
2019-02-23T10:47:21.420Z,8.73
2019-02-23T10:49:50.835Z,8.77
2019-02-23T10:52:20.258Z,8.75
2019-02-23T10:54:49.771Z,8.77
2019-02-23T10:57:19.428Z,8.76
2019-02-23T10:59:49.248Z,8.76
2019-02-23T11:02:19.041Z,8.78
2019-02-23T11:04:48.530Z,8.83
2019-02-23T11:07:18.575Z,8.84
2019-02-23T11:09:49.477Z,8.80
2019-02-23T11:12:18.956Z,8.79
2019-02-23T11:14:48.553Z,8.77
2019-02-23T11:17:18.435Z,8.74
2019-02-23T11:19:49.062Z,8.71
2019-02-23T11:22:18.934Z,8.69
2019-02-23T11:24:48.410Z,8.69
2019-02-23T11:27:18.006Z,8.70
2019-02-23T11:29:47.592Z,8.66
2019-02-23T11:32:17.032Z,8.68
2019-02-23T11:34:47.309Z,8.65
2019-02-23T11:37:17.247Z,8.65
2019-02-23T11:39:46.752Z,8.64
2019-02-23T11:42:16.535Z,8.65
2019-02-23T11:44:46.076Z,8.66
2019-02-23T11:47:15.738Z,8.56
2019-02-23T11:49:45.882Z,8.54
2019-02-23T11:52:15.441Z,8.58
2019-02-23T11:54:45.157Z,8.55
2019-02-23T11:57:15.048Z,8.48
2019-02-23T11:59:44.549Z,8.48
2019-02-23T12:02:14.156Z,8.47
2019-02-23T12:04:44.001Z,8.41
2019-02-23T12:07:13.671Z,8.29
2019-02-23T12:09:43.167Z,8.12
2019-02-23T12:12:12.711Z,8.04
2019-02-23T12:14:42.099Z,7.99
2019-02-23T12:17:11.823Z,7.94
2019-02-23T12:19:41.697Z,7.83
2019-02-23T12:22:12.590Z,7.74
2019-02-23T12:24:42.269Z,7.71
2019-02-23T12:27:12.947Z,7.00
2019-02-23T12:29:42.545Z,7.53
2019-02-23T12:32:12.034Z,7.49
2019-02-23T12:34:41.496Z,7.47
2019-02-23T12:37:10.861Z,7.42
2019-02-23T12:39:40.491Z,7.43
2019-02-23T12:42:10.039Z,7.37
2019-02-23T12:44:39.662Z,7.42
2019-02-23T12:47:10.143Z,7.32
2019-02-23T12:49:39.936Z,7.42
2019-02-23T12:52:09.417Z,7.57
2019-02-23T12:54:38.823Z,7.65
2019-02-23T12:57:08.992Z,7.74
2019-02-23T12:59:38.774Z,7.74
2019-02-23T13:02:08.267Z,7.85
2019-02-23T13:04:37.649Z,7.95
2019-02-23T13:07:07.020Z,8.05
2019-02-23T13:09:39.767Z,8.17
2019-02-23T13:12:36.949Z,8.34
2019-02-23T13:15:30.741Z,8.37
2019-02-23T13:18:25.659Z,8.34
2019-02-23T13:21:26.783Z,8.30
2019-02-23T13:24:44.174Z,8.29
2019-02-23T13:27:35.444Z,8.20
2019-02-23T13:31:09.979Z,8.06
2019-02-23T13:34:16.692Z,7.96
2019-02-23T13:37:47.888Z,7.86
2019-02-23T13:41:04.723Z,7.82
2019-02-23T13:44:15.036Z,7.77
2019-02-23T13:47:22.659Z,7.58
2019-02-23T13:50:31.150Z,7.52
2019-02-23T13:53:35.912Z,7.70
2019-02-23T13:56:44.439Z,7.79
2019-02-23T13:59:53.594Z,7.70
2019-02-23T14:03:17.971Z,7.60
2019-02-23T14:06:22.381Z,7.86
2019-02-23T14:09:28.675Z,7.91
2019-02-23T14:12:13.201Z,7.95
2019-02-23T14:15:22.321Z,7.92
2019-02-23T14:18:09.494Z,7.85
2019-02-23T14:21:03.216Z,7.83
2019-02-23T14:23:53.180Z,7.85
2019-02-23T14:27:19.257Z,7.92
2019-02-23T14:30:36.590Z,7.96
2019-02-23T14:34:00.657Z,7.94
2019-02-23T14:37:09.065Z,7.79
2019-02-23T14:40:13.245Z,7.57
2019-02-23T14:43:38.419Z,7.43
2019-02-23T14:46:48.418Z,7.31
2019-02-23T14:49:58.533Z,7.31
2019-02-23T14:53:10.212Z,7.25
2019-02-23T14:56:11.924Z,7.19
2019-02-23T14:58:57.934Z,7.15
2019-02-23T15:01:57.958Z,7.09
2019-02-23T15:05:20.593Z,7.01
2019-02-23T15:08:12.711Z,6.99
2019-02-23T15:11:11.161Z,6.93
2019-02-23T15:14:04.508Z,6.90
2019-02-23T15:17:13.749Z,6.84
2019-02-23T15:20:29.809Z,6.81
2019-02-23T15:23:35.465Z,6.83
2019-02-23T15:26:46.166Z,6.84
2019-02-23T15:30:02.818Z,6.84
2019-02-23T15:33:02.502Z,6.78
2019-02-23T15:35:42.544Z,6.63
2019-02-23T15:39:01.981Z,6.55
2019-02-23T15:42:04.329Z,6.55
2019-02-23T15:45:22.553Z,6.58
2019-02-23T15:48:18.316Z,6.62
2019-02-23T15:50:48.069Z,6.62
2019-02-23T15:53:17.502Z,6.56
2019-02-23T15:55:46.965Z,6.57
2019-02-23T15:58:22.105Z,6.53
2019-02-23T16:00:51.459Z,6.60
2019-02-23T16:03:20.985Z,6.89
2019-02-23T16:05:50.470Z,6.99
2019-02-23T16:08:19.864Z,6.95
2019-02-23T16:10:49.228Z,6.96
2019-02-23T16:13:18.792Z,6.86
2019-02-23T16:15:48.400Z,6.82
2019-02-23T16:18:17.952Z,6.80
2019-02-23T16:20:48.280Z,6.74
2019-02-23T16:23:17.760Z,6.85
2019-02-23T16:25:47.404Z,6.98
2019-02-23T16:28:16.978Z,6.97
2019-02-23T16:30:47.068Z,6.93
2019-02-23T16:33:16.682Z,6.93
2019-02-23T16:35:46.183Z,6.89
2019-02-23T16:38:15.592Z,6.86
2019-02-23T16:40:45.049Z,6.77
2019-02-23T16:43:14.871Z,6.66
2019-02-23T16:45:44.336Z,6.57
2019-02-23T16:48:19.357Z,6.63
2019-02-23T16:50:48.805Z,6.59
2019-02-23T16:53:18.180Z,6.64
2019-02-23T16:55:51.001Z,6.75
2019-02-23T16:58:18.858Z,6.80
2019-02-23T17:00:48.181Z,6.83
2019-02-23T17:03:17.645Z,6.79
2019-02-23T17:05:47.111Z,6.76
2019-02-23T17:08:16.790Z,6.74
2019-02-23T17:10:46.319Z,6.75
2019-02-23T17:13:16.210Z,6.77
2019-02-23T17:15:46.241Z,6.81
2019-02-23T17:18:15.851Z,6.86
2019-02-23T17:20:45.358Z,6.89
2019-02-23T17:23:14.877Z,6.91
2019-02-23T17:25:44.625Z,6.86
2019-02-23T17:28:13.993Z,6.85
2019-02-23T17:30:43.491Z,6.88
2019-02-23T17:33:12.995Z,6.92
2019-02-23T17:35:42.779Z,6.90
2019-02-23T17:38:16.081Z,6.84
2019-02-23T17:40:43.487Z,6.80
2019-02-23T17:43:13.039Z,6.75
2019-02-23T17:45:42.610Z,6.78
2019-02-23T17:48:12.722Z,6.79
2019-02-23T17:50:42.195Z,6.82
2019-02-23T17:53:11.758Z,6.86
2019-02-23T17:55:41.306Z,6.87
2019-02-23T17:58:11.056Z,6.91
2019-02-23T18:00:41.450Z,6.92
2019-02-23T18:03:11.264Z,6.89
2019-02-23T18:05:43.363Z,6.86
2019-02-23T18:08:13.036Z,6.85
2019-02-23T18:10:42.792Z,6.83
2019-02-23T18:13:12.670Z,6.86
2019-02-23T18:15:42.776Z,6.91
2019-02-23T18:18:12.329Z,6.92
2019-02-23T18:20:42.214Z,6.93
2019-02-23T18:23:11.656Z,6.91
2019-02-23T18:25:41.292Z,6.96
2019-02-23T18:28:11.058Z,6.98
2019-02-23T18:30:41.106Z,6.94
2019-02-23T18:33:11.040Z,6.96
2019-02-23T18:35:40.818Z,6.97
2019-02-23T18:38:11.369Z,6.96
2019-02-23T18:40:41.598Z,6.96
2019-02-23T18:43:10.996Z,6.94
2019-02-23T18:45:47.224Z,7.00
2019-02-23T18:48:11.875Z,7.03
2019-02-23T18:50:41.767Z,7.09
2019-02-23T18:53:11.237Z,7.12
2019-02-23T18:55:41.478Z,7.14
2019-02-23T18:58:10.967Z,7.12
2019-02-23T19:00:40.753Z,7.19
2019-02-23T19:03:10.351Z,7.19
2019-02-23T19:05:40.451Z,7.19
2019-02-23T19:08:10.046Z,7.15
2019-02-23T19:10:40.146Z,7.12
2019-02-23T19:13:09.984Z,7.10
2019-02-23T19:15:39.662Z,7.05
2019-02-23T19:18:09.921Z,7.03
2019-02-23T19:20:39.366Z,7.02
2019-02-23T19:23:08.825Z,7.02
2019-02-23T19:25:38.945Z,7.00
2019-02-23T19:28:08.672Z,6.94
2019-02-23T19:30:38.806Z,6.91
2019-02-23T19:33:08.194Z,6.88
2019-02-23T19:35:37.746Z,6.85
2019-02-23T19:38:07.773Z,6.83
2019-02-23T19:40:37.246Z,6.84
2019-02-23T19:43:06.660Z,6.79
2019-02-23T19:45:36.228Z,6.79
2019-02-23T19:48:06.194Z,6.78
2019-02-23T19:50:39.370Z,6.76
2019-02-23T19:53:08.828Z,6.72
2019-02-23T19:55:38.481Z,6.75
2019-02-23T19:58:07.927Z,6.75
2019-02-23T20:00:38.106Z,6.78
2019-02-23T20:03:07.998Z,6.76
2019-02-23T20:05:38.206Z,6.74
2019-02-23T20:08:08.078Z,6.74
2019-02-23T20:10:37.577Z,6.74
2019-02-23T20:13:06.944Z,6.72
2019-02-23T20:15:37.640Z,6.74
2019-02-23T20:18:07.494Z,6.76
2019-02-23T20:20:36.976Z,6.78
2019-02-23T20:23:07.091Z,6.79
2019-02-23T20:25:36.604Z,6.80
2019-02-23T20:28:06.502Z,6.80
2019-02-23T20:30:36.267Z,6.80
2019-02-23T20:33:05.763Z,6.82
2019-02-23T20:35:35.417Z,6.77
2019-02-23T20:38:05.266Z,6.73
2019-02-23T20:40:34.804Z,6.68
2019-02-23T20:43:04.227Z,6.61
2019-02-23T20:45:33.683Z,6.61
2019-02-23T20:48:03.543Z,6.58
2019-02-23T20:50:33.343Z,6.58
2019-02-23T20:53:03.250Z,6.58
2019-02-23T20:55:32.643Z,6.58
2019-02-23T20:58:02.382Z,6.62
2019-02-23T21:00:31.819Z,6.72
2019-02-23T21:03:01.257Z,6.82
2019-02-23T21:05:30.720Z,6.87
2019-02-23T21:08:00.848Z,6.91
2019-02-23T21:10:30.725Z,6.94
2019-02-23T21:13:00.452Z,6.96
2019-02-23T21:15:29.856Z,6.99
2019-02-23T21:17:59.759Z,6.99
2019-02-23T21:20:29.153Z,6.98
2019-02-23T21:22:58.963Z,6.93
2019-02-23T21:25:29.310Z,6.89
2019-02-23T21:27:59.127Z,6.84
2019-02-23T21:30:28.556Z,6.83
2019-02-23T21:32:58.511Z,6.81
2019-02-23T21:35:29.144Z,6.77
2019-02-23T21:37:58.604Z,6.71
2019-02-23T21:40:28.013Z,6.66
2019-02-23T21:42:57.384Z,6.65
2019-02-23T21:45:26.836Z,6.62
2019-02-23T21:47:56.252Z,6.61
2019-02-23T21:50:26.018Z,6.59
2019-02-23T21:52:55.705Z,6.50
2019-02-23T21:55:25.397Z,6.49
2019-02-23T21:57:54.765Z,6.54
2019-02-23T22:00:24.476Z,6.57
2019-02-23T22:02:53.900Z,6.62
2019-02-23T22:05:24.980Z,6.69
2019-02-23T22:07:54.755Z,6.72
2019-02-23T22:10:24.483Z,6.64
2019-02-23T22:12:54.360Z,6.57
2019-02-23T22:15:24.471Z,6.56
2019-02-23T22:17:53.851Z,6.56
2019-02-23T22:20:24.138Z,6.51
2019-02-23T22:22:54.766Z,6.47
2019-02-23T22:25:24.552Z,6.52
2019-02-23T22:27:53.913Z,6.46
2019-02-23T22:30:23.362Z,6.44
2019-02-23T22:32:52.745Z,6.42
2019-02-23T22:35:22.296Z,6.34
2019-02-23T22:37:52.459Z,6.25
2019-02-23T22:40:21.833Z,6.16
2019-02-23T22:42:51.544Z,6.09
2019-02-23T22:45:21.682Z,6.01
2019-02-23T22:47:51.162Z,5.97
2019-02-23T22:50:20.600Z,5.92
2019-02-23T22:52:49.933Z,5.87
2019-02-23T22:55:19.614Z,5.81
2019-02-23T22:57:48.978Z,5.78
2019-02-23T23:00:23.840Z,5.73
2019-02-23T23:02:53.723Z,5.71
2019-02-23T23:05:23.775Z,5.68
2019-02-23T23:07:53.195Z,5.71
2019-02-23T23:10:22.660Z,5.73
2019-02-23T23:12:52.099Z,5.73
2019-02-23T23:15:21.597Z,5.71
2019-02-23T23:17:51.334Z,5.77
2019-02-23T23:20:20.857Z,5.89
2019-02-23T23:22:51.914Z,6.02
2019-02-23T23:25:22.498Z,6.09
2019-02-23T23:27:51.980Z,6.13
2019-02-23T23:30:24.097Z,6.22
2019-02-23T23:32:53.925Z,6.24
2019-02-23T23:35:23.353Z,6.29
2019-02-23T23:37:52.822Z,6.34
2019-02-23T23:40:22.588Z,6.36
2019-02-23T23:42:58.218Z,6.36
2019-02-23T23:45:23.816Z,6.36
2019-02-23T23:47:54.357Z,6.29
2019-02-23T23:50:24.408Z,6.31
2019-02-23T23:52:53.795Z,6.29
2019-02-23T23:55:23.377Z,6.28
2019-02-23T23:57:58.300Z,6.22
